Terminal Aerodrome Forecast
Issued by NWS

Home | Current Version | Previous Version | Text Only | Print | Product List | Glossary On
Versions: 1 2 3 4 5 6 7 8 9 10 11 12 13 14 15
000
FTUS43 KICT 130500
TAFSLN
TAF
KSLN 130522Z 1306/1406 17013KT P6SM SCT060 BKN120
     FM130900 12013KT P6SM SCT030 BKN120
     FM131600 01016KT P6SM SCT030 BKN050
     FM131900 35026G35KT 5SM -RA OVC018
     FM140500 36022G30KT 4SM -RASN OVC013=

USA.gov is the U.S. government's official web portal to all federal, state and local government web resources and services.